Enter the Airport ICAO Code

Search by Airport or City

Current Weather

LEMH | Menorca Airport (Mahón Airport)

Menorca, Balearic Islands, Spain

Last Update 6 Minutes Ago

Sky with Few Clouds

Temperature of 14 ºC

Strong Winds from North with Gusts

Temperature

14 ºC

Dew Point Temperature

05 ºC

Relative Humidity

54.73 %

Wind Direction

North (360º, Without Significant Variations)

Wind Velocity

41 km/h (22 kt)

Gusts

59 km/h (32 kt)

Visibility

Greater than 10 Kilometers

Sea Level Pressure

1016 hPa (Hectopascals)

Layers of Clouds

5% to 30% of Sky Covered from 914 mts (3000 ft) Above Ground Level.

METAR LEMH 091100Z 36022G32KT 9999 FEW030 14/05 Q1016

Weather Forecast

LEMH | Menorca Airport (Mahón Airport)

Menorca, Balearic Islands, Spain

Forecast valid for the next 22 Hours

From now on it is expected:

Sky with Few Clouds

Moderate Winds from North

From now on it is expected 6 hours with intermittent periods of:

Moderate to Strong Winds from North with Gusts

In 12 hours it is expected the begining of 7 hours with intermittent periods of:

Rain

Maximum Temperature

16 ºC in 1 Hour

Minimum Temperature

07 ºC in 19 Hours

TAF LEMH 091101Z 0911/1009 01015KT 9999 FEW020 TX16/0912Z TN07/1006Z TEMPO 0911/0917 01020G30KT PROB40 TEMPO 0923/1006 RA BKN030